Terminal Aerodrome Forecast
Issued by NWS

Home | Current Version | Previous Version | Text Only | Print | Product List | Glossary On
Versions: 1 2 3 4 5 6 7 8 9 10 11 12 13
000
FTUS45 KRIW 202300
TAFLND
TAF
KLND 202326Z 2100/2124 22008KT P6SM VCSH SCT080 BKN110
     FM210200 04007KT P6SM FEW080 SCT120
     FM210500 24007KT P6SM SCT120 BKN200
     FM212000 VRB06KT P6SM VCSH SCT070 BKN140=

USA.gov is the U.S. government's official web portal to all federal, state and local government web resources and services.